Date,TemperatureHighF,TemperatureAvgF,TemperatureLowF,DewpointHighF,DewpointAvgF,DewpointLowF,HumidityHigh,HumidityAvg,HumidityLow,PressureMaxIn,PressureMinIn,WindSpeedMaxMPH,WindSpeedAvgMPH,GustSpeedMaxMPH,PrecipitationSumIn
2013-2-1,45,34,22,23,18,10,100,57,27,0.00,40.00,19,-29,37,0.00
2013-2-2,54,38,25,21,16,7,86,46,13,0.00,40.00,13,4,23,0.00
2013-2-3,45,37,27,18,13,3,58,36,17,0.00,40.00,7,-123,17,0.00
2013-2-4,56,42,28,15,9,4,51,25,12,0.00,40.00,166,-63,166,0.00
2013-2-5,56,44,30,21,16,9,55,31,19,0.00,40.00,7,3,15,0.00
2013-2-6,52,42,34,34,23,16,98,51,29,0.00,40.00,10,-45,20,0.00
2013-2-7,47,36,27,34,20,9,99,57,24,0.00,40.00,6,-122,14,0.00
2013-2-8,50,35,23,19,11,4,65,38,15,0.00,40.00,3,-255,11,0.00
2013-2-9,34,29,23,29,19,8,100,69,32,0.00,40.00,166,-44,166,0.00
2013-2-10,36,26,19,21,15,7,92,64,31,0.00,40.00,7,-108,15,0.00
2013-2-11,28,20,13,16,14,11,98,79,56,0.00,40.00,5,-332,10,0.00
2013-2-12,42,29,15,13,4,-7,89,38,10,0.00,40.00,6,-81,15,0.00
2013-2-13,47,35,24,16,11,5,51,36,22,0.00,40.00,19,-1,47,0.00
2013-2-14,35,26,20,25,18,11,96,75,36,0.00,40.00,8,-32,22,0.00
2013-2-15,45,27,16,18,14,7,95,62,20,0.00,40.00,7,-142,16,0.00
2013-2-19,39,33,26,14,12,10,56,40,27,0.00,40.00,4,-52,10,0.00
2013-2-20,36,24,17,28,18,14,100,81,45,0.00,40.00,7,-68,14,0.00
2013-2-21,41,20,12,31,17,11,100,89,42,0.00,40.00,2,-506,8,0.00
2013-2-22,35,25,17,19,16,6,97,70,42,0.00,40.00,5,-123,11,0.00
2013-2-23,44,28,15,27,17,4,100,64,39,0.00,40.00,52,-206,52,0.00
2013-2-24,27,24,21,27,24,17,100,98,83,0.00,40.00,13,-10,27,0.00
2013-2-25,40,24,14,21,16,12,98,74,37,0.00,40.00,7,-262,14,0.00
2013-2-26,43,26,18,25,18,13,95,74,49,0.00,40.00,29,-52,29,0.00
2013-2-27,51,28,18,14,10,5,74,49,15,0.00,40.00,10,-31,16,0.00
2013-2-28,48,33,21,19,10,3,67,37,17,0.00,40.00,12,4,24,0.00